createdAt,value
2023-03-24T00:01:54.954Z,99.90
2023-03-24T00:04:23.281Z,99.90
2023-03-24T00:06:50.250Z,99.90
2023-03-24T00:09:18.010Z,99.90
2023-03-24T00:11:45.351Z,99.90
2023-03-24T00:14:12.752Z,99.90
2023-03-24T00:16:42.561Z,99.90
2023-03-24T00:19:13.550Z,99.90
2023-03-24T00:21:41.999Z,99.90
2023-03-24T00:24:10.205Z,99.90
2023-03-24T00:26:38.436Z,99.90
2023-03-24T00:29:06.370Z,99.90
2023-03-24T00:31:33.735Z,99.90
2023-03-24T00:34:02.846Z,99.90
2023-03-24T00:36:31.161Z,99.90
2023-03-24T00:38:58.165Z,99.90
2023-03-24T00:41:27.119Z,99.90
2023-03-24T00:43:56.701Z,99.90
2023-03-24T00:46:30.604Z,99.90
2023-03-24T00:49:02.490Z,99.90
2023-03-24T00:51:34.014Z,99.90
2023-03-24T00:54:01.935Z,99.90
2023-03-24T00:56:31.235Z,99.90
2023-03-24T00:58:58.824Z,99.90
2023-03-24T01:01:29.222Z,99.90
2023-03-24T01:03:56.836Z,99.90
2023-03-24T01:06:24.512Z,99.90
2023-03-24T01:08:54.027Z,99.90
2023-03-24T01:11:22.611Z,99.90
2023-03-24T01:13:49.750Z,99.90
2023-03-24T01:16:16.972Z,99.90
2023-03-24T01:18:44.080Z,99.90
2023-03-24T01:21:12.296Z,99.90
2023-03-24T01:23:41.937Z,99.90
2023-03-24T01:26:11.333Z,99.90
2023-03-24T01:28:41.160Z,99.90
2023-03-24T01:31:09.885Z,99.90
2023-03-24T01:33:37.685Z,99.90
2023-03-24T01:36:06.489Z,99.90
2023-03-24T01:38:34.805Z,99.90
2023-03-24T01:41:02.742Z,99.90
2023-03-24T01:43:33.163Z,99.90
2023-03-24T01:46:09.103Z,99.90
2023-03-24T01:48:40.458Z,99.90
2023-03-24T01:51:11.631Z,99.90
2023-03-24T01:53:43.219Z,99.90
2023-03-24T01:56:11.892Z,99.90
2023-03-24T01:58:43.725Z,99.90
2023-03-24T02:01:10.978Z,99.90
2023-03-24T02:03:40.143Z,99.90
2023-03-24T02:06:08.530Z,99.90
2023-03-24T02:08:42.089Z,99.90
2023-03-24T02:11:09.662Z,99.90
2023-03-24T02:13:36.541Z,99.90
2023-03-24T02:16:18.456Z,99.90
2023-03-24T02:18:54.755Z,99.90
2023-03-24T02:22:03.724Z,99.90
2023-03-24T02:25:03.192Z,99.90
2023-03-24T02:27:55.476Z,99.90
2023-03-24T02:30:45.696Z,99.90
2023-03-24T02:33:54.699Z,99.90
2023-03-24T02:36:54.515Z,99.90
2023-03-24T02:39:52.151Z,99.90
2023-03-24T02:42:30.959Z,99.90
2023-03-24T02:45:09.224Z,99.90
2023-03-24T02:47:43.603Z,99.90
2023-03-24T02:50:18.537Z,99.90
2023-03-24T02:52:50.218Z,99.90
2023-03-24T02:55:21.359Z,99.90
2023-03-24T02:57:52.886Z,99.90
2023-03-24T03:00:28.381Z,99.90
2023-03-24T03:03:01.578Z,99.90
2023-03-24T03:05:33.136Z,99.90
2023-03-24T03:08:04.122Z,99.90
2023-03-24T03:10:35.817Z,99.90
2023-03-24T03:13:07.690Z,99.90
2023-03-24T03:15:39.280Z,99.90
2023-03-24T03:18:11.133Z,99.90
2023-03-24T03:20:42.916Z,99.90
2023-03-24T03:23:13.421Z,99.90
2023-03-24T03:25:46.497Z,99.90
2023-03-24T03:28:20.559Z,99.90
2023-03-24T03:30:53.044Z,99.90
2023-03-24T03:33:25.072Z,99.90
2023-03-24T03:35:56.987Z,99.90
2023-03-24T03:38:29.235Z,99.90
2023-03-24T03:40:59.511Z,99.90
2023-03-24T03:43:27.790Z,99.90
2023-03-24T03:45:54.958Z,99.90
2023-03-24T03:48:22.441Z,99.90
2023-03-24T03:50:53.265Z,99.90
2023-03-24T03:53:28.698Z,99.90
2023-03-24T03:55:57.045Z,99.90
2023-03-24T03:58:24.227Z,99.90
2023-03-24T04:00:51.386Z,99.90
2023-03-24T04:03:37.077Z,99.90
2023-03-24T04:06:13.844Z,99.90
2023-03-24T04:08:48.212Z,99.90
2023-03-24T04:11:41.332Z,99.90
2023-03-24T04:14:38.108Z,99.90
2023-03-24T04:17:14.605Z,99.90
2023-03-24T04:19:55.840Z,99.90
2023-03-24T04:22:30.343Z,99.90
2023-03-24T04:25:02.862Z,99.90
2023-03-24T04:27:38.569Z,99.90
2023-03-24T04:30:16.924Z,99.90
2023-03-24T04:32:48.421Z,99.90
2023-03-24T04:35:31.696Z,99.90
2023-03-24T04:38:03.898Z,99.90
2023-03-24T04:40:33.040Z,99.90
2023-03-24T04:43:05.537Z,99.90
2023-03-24T04:45:35.518Z,99.90
2023-03-24T04:48:05.139Z,99.90
2023-03-24T04:50:36.329Z,99.90
2023-03-24T04:53:04.002Z,99.90
2023-03-24T04:55:53.890Z,99.90
2023-03-24T04:58:22.973Z,99.90
2023-03-24T05:00:51.242Z,99.90
2023-03-24T05:03:19.520Z,99.90
2023-03-24T05:05:48.342Z,99.90
2023-03-24T05:08:16.363Z,99.90
2023-03-24T05:10:43.771Z,99.90
2023-03-24T05:13:11.324Z,99.90
2023-03-24T05:15:39.615Z,99.90
2023-03-24T05:18:06.986Z,99.90
2023-03-24T05:20:33.920Z,99.90
2023-03-24T05:23:01.815Z,99.90
2023-03-24T05:25:28.713Z,99.90
2023-03-24T05:27:55.895Z,99.90
2023-03-24T05:30:23.147Z,99.90
2023-03-24T05:32:51.646Z,99.90
2023-03-24T05:35:18.825Z,99.90
2023-03-24T05:37:45.847Z,99.90
2023-03-24T05:40:12.826Z,99.90
2023-03-24T05:42:39.646Z,99.90
2023-03-24T05:45:08.702Z,99.90
2023-03-24T05:47:35.620Z,99.90
2023-03-24T05:50:05.136Z,99.90
2023-03-24T05:52:33.123Z,99.90
2023-03-24T05:55:00.547Z,99.90
2023-03-24T05:57:30.373Z,99.90
2023-03-24T05:59:57.376Z,99.90
2023-03-24T06:02:25.085Z,99.90
2023-03-24T06:04:52.210Z,99.90
2023-03-24T06:07:20.600Z,99.90
2023-03-24T06:09:50.863Z,99.90
2023-03-24T06:12:18.029Z,99.90
2023-03-24T06:14:45.506Z,99.90
2023-03-24T06:17:16.794Z,99.90
2023-03-24T06:19:50.136Z,99.90
2023-03-24T06:22:17.694Z,99.90
2023-03-24T06:24:50.040Z,99.90
2023-03-24T06:27:18.808Z,99.90
2023-03-24T06:29:45.897Z,99.90
2023-03-24T06:32:12.823Z,99.90
2023-03-24T06:34:40.443Z,99.90
2023-03-24T06:37:07.964Z,99.90
2023-03-24T06:39:34.908Z,99.90
2023-03-24T06:42:03.382Z,99.90
2023-03-24T06:44:30.652Z,99.90
2023-03-24T06:46:57.535Z,99.90
2023-03-24T06:49:24.562Z,99.90
2023-03-24T06:51:51.530Z,99.90
2023-03-24T06:54:18.514Z,99.90
2023-03-24T06:56:45.505Z,99.90
2023-03-24T06:59:13.972Z,99.90
2023-03-24T07:01:40.944Z,99.90
2023-03-24T07:04:07.963Z,99.90
2023-03-24T07:06:43.174Z,99.90
2023-03-24T07:09:13.890Z,99.90
2023-03-24T07:11:41.445Z,99.90
2023-03-24T07:14:08.390Z,99.90
2023-03-24T07:16:37.044Z,99.90
2023-03-24T07:19:04.531Z,99.90
2023-03-24T07:21:31.514Z,99.90
2023-03-24T07:23:58.421Z,99.90
2023-03-24T07:26:25.440Z,99.90
2023-03-24T07:28:52.480Z,99.90
2023-03-24T07:31:19.500Z,99.90
2023-03-24T07:33:47.861Z,99.90
2023-03-24T07:36:14.876Z,99.90
2023-03-24T07:38:41.812Z,99.90
2023-03-24T07:41:08.949Z,99.90
2023-03-24T07:43:36.171Z,99.90
2023-03-24T07:46:03.259Z,99.90
2023-03-24T07:48:30.172Z,99.90
2023-03-24T07:50:58.488Z,99.90
2023-03-24T07:53:25.507Z,99.90
2023-03-24T07:55:52.701Z,99.90
2023-03-24T07:58:19.963Z,99.90
2023-03-24T08:00:47.251Z,99.90
2023-03-24T08:03:15.350Z,99.90
2023-03-24T08:05:44.272Z,99.90
2023-03-24T08:08:13.247Z,99.90
2023-03-24T08:10:40.645Z,99.90
2023-03-24T08:13:07.993Z,99.90
2023-03-24T08:15:35.173Z,99.90
2023-03-24T08:18:04.363Z,99.90
2023-03-24T08:20:32.399Z,99.90
2023-03-24T08:23:00.962Z,99.90
2023-03-24T08:25:29.676Z,99.90
2023-03-24T08:27:57.475Z,99.90
2023-03-24T08:30:26.682Z,99.90
2023-03-24T08:32:57.078Z,99.90
2023-03-24T08:35:27.016Z,99.90
2023-03-24T08:37:54.116Z,99.90
2023-03-24T08:40:24.261Z,99.90
2023-03-24T08:42:55.567Z,99.90
2023-03-24T08:45:24.043Z,99.90
2023-03-24T08:47:52.506Z,99.90
2023-03-24T08:50:21.964Z,99.90
2023-03-24T08:52:48.942Z,99.90
2023-03-24T08:55:16.733Z,99.90
2023-03-24T08:57:44.091Z,99.90
2023-03-24T09:00:15.737Z,99.90
2023-03-24T09:02:45.652Z,99.90
2023-03-24T09:05:15.803Z,99.90
2023-03-24T09:07:43.781Z,99.90
2023-03-24T09:10:12.784Z,99.90
2023-03-24T09:12:40.819Z,99.90
2023-03-24T09:15:11.696Z,99.90
2023-03-24T09:17:42.346Z,99.90
2023-03-24T09:20:12.057Z,99.90
2023-03-24T09:22:42.732Z,99.90
2023-03-24T09:25:18.239Z,99.90
2023-03-24T09:27:46.587Z,99.90
2023-03-24T09:30:16.726Z,99.90
2023-03-24T09:32:46.614Z,99.90
2023-03-24T09:35:15.738Z,99.90
2023-03-24T09:37:43.980Z,99.90
2023-03-24T09:40:18.910Z,99.90
2023-03-24T09:42:51.840Z,99.90
2023-03-24T09:45:22.029Z,99.90
2023-03-24T09:47:57.121Z,99.90
2023-03-24T09:50:27.891Z,99.90
2023-03-24T09:52:59.079Z,99.90
2023-03-24T09:55:28.321Z,99.90
2023-03-24T09:58:02.221Z,99.90
2023-03-24T10:00:32.697Z,99.90
2023-03-24T10:03:12.621Z,99.90
2023-03-24T10:05:45.430Z,99.90
2023-03-24T10:08:19.815Z,99.90
2023-03-24T10:10:57.694Z,99.90
2023-03-24T10:13:32.808Z,99.90
2023-03-24T10:16:07.543Z,99.90
2023-03-24T10:18:40.634Z,99.90
2023-03-24T10:21:17.960Z,99.90
2023-03-24T10:23:53.217Z,99.90
2023-03-24T10:26:35.205Z,99.90
2023-03-24T10:29:20.258Z,99.90
2023-03-24T10:31:52.315Z,99.90
2023-03-24T10:34:27.632Z,99.90
2023-03-24T10:36:58.539Z,99.90
2023-03-24T10:39:38.107Z,99.90
2023-03-24T10:42:17.182Z,99.90
2023-03-24T10:44:47.216Z,99.90
2023-03-24T10:47:18.875Z,99.90
2023-03-24T10:49:58.594Z,99.90
2023-03-24T10:52:25.939Z,99.90
2023-03-24T10:54:58.514Z,99.90
2023-03-24T10:57:27.131Z,99.90
2023-03-24T10:59:56.793Z,99.90
2023-03-24T11:02:25.725Z,99.90
2023-03-24T11:04:58.429Z,99.90
2023-03-24T11:07:31.213Z,99.90
2023-03-24T11:10:04.393Z,99.90
2023-03-24T11:12:33.324Z,99.90
2023-03-24T11:15:21.819Z,99.90
2023-03-24T11:17:56.791Z,99.90
2023-03-24T11:20:30.972Z,99.90
2023-03-24T11:23:01.867Z,99.90
2023-03-24T11:25:33.791Z,99.90
2023-03-24T11:28:06.094Z,99.90
2023-03-24T11:30:45.778Z,99.90
2023-03-24T11:33:20.734Z,99.90
2023-03-24T11:36:10.163Z,99.90
2023-03-24T11:38:38.088Z,99.90
2023-03-24T11:41:06.149Z,99.90
2023-03-24T11:43:33.230Z,99.90
2023-03-24T11:46:05.326Z,99.90
2023-03-24T11:48:41.709Z,99.90
2023-03-24T11:51:12.631Z,99.90
2023-03-24T11:53:46.506Z,99.90
2023-03-24T11:56:19.472Z,99.90
2023-03-24T11:58:50.092Z,99.90
2023-03-24T12:01:27.767Z,99.90
2023-03-24T12:04:25.104Z,99.90
2023-03-24T12:07:22.669Z,99.90
2023-03-24T12:09:55.482Z,99.90
2023-03-24T12:12:33.689Z,99.90
2023-03-24T12:15:28.183Z,99.90
2023-03-24T12:18:04.553Z,99.90
2023-03-24T12:20:36.094Z,99.90
2023-03-24T12:23:13.160Z,99.90
2023-03-24T12:25:47.064Z,99.90
2023-03-24T12:28:30.922Z,99.90
2023-03-24T12:31:08.965Z,99.90
2023-03-24T12:33:49.789Z,99.90
2023-03-24T12:36:39.838Z,99.90
2023-03-24T12:39:12.719Z,99.90
2023-03-24T12:41:59.964Z,99.90
2023-03-24T12:45:00.387Z,99.90
2023-03-24T12:47:58.173Z,99.90
2023-03-24T12:50:38.473Z,99.90
2023-03-24T12:53:23.345Z,99.90
2023-03-24T12:55:54.897Z,99.90
2023-03-24T12:58:26.934Z,99.90
2023-03-24T13:01:01.533Z,99.90
2023-03-24T13:03:35.300Z,99.90
2023-03-24T13:06:17.123Z,99.90
2023-03-24T13:08:53.847Z,99.90
2023-03-24T13:11:33.226Z,99.90
2023-03-24T13:14:03.354Z,99.90
2023-03-24T13:16:33.662Z,99.90
2023-03-24T13:19:02.708Z,99.50
2023-03-24T13:21:31.888Z,99.10
2023-03-24T13:24:03.908Z,98.50
2023-03-24T13:26:39.136Z,98.00
2023-03-24T13:29:23.293Z,97.80
2023-03-24T13:31:55.095Z,97.70
2023-03-24T13:34:28.004Z,97.70
2023-03-24T13:37:00.193Z,97.30
2023-03-24T13:39:28.727Z,96.90
2023-03-24T13:41:59.025Z,96.70
2023-03-24T13:44:34.918Z,96.40
2023-03-24T13:47:14.942Z,96.20
2023-03-24T13:49:45.831Z,95.90
2023-03-24T13:52:28.089Z,95.80
2023-03-24T13:54:58.901Z,95.20
2023-03-24T13:57:30.471Z,95.10
2023-03-24T14:00:08.730Z,95.00
2023-03-24T14:02:48.214Z,94.90
2023-03-24T14:05:57.244Z,94.50
2023-03-24T14:08:43.906Z,94.10
2023-03-24T14:11:43.091Z,94.30
2023-03-24T14:14:20.669Z,94.30
2023-03-24T14:17:11.865Z,94.20
2023-03-24T14:19:41.957Z,94.30
2023-03-24T14:22:21.194Z,94.10
2023-03-24T14:24:59.278Z,93.90
2023-03-24T14:27:36.871Z,93.80
2023-03-24T14:30:19.552Z,93.70
2023-03-24T14:32:48.669Z,93.70
2023-03-24T14:35:26.134Z,93.90
2023-03-24T14:37:57.635Z,93.70
2023-03-24T14:40:29.691Z,93.80
2023-03-24T14:43:05.181Z,93.70
2023-03-24T14:45:51.173Z,93.60
2023-03-24T14:48:44.087Z,93.70
2023-03-24T14:51:44.102Z,93.70
2023-03-24T14:54:16.452Z,93.70
2023-03-24T14:56:47.468Z,93.80
2023-03-24T14:59:25.887Z,93.80
2023-03-24T15:02:00.926Z,93.70
2023-03-24T15:04:28.248Z,93.60
2023-03-24T15:06:55.142Z,93.60
2023-03-24T15:09:22.335Z,93.60
2023-03-24T15:11:49.755Z,93.60
2023-03-24T15:14:22.451Z,93.60
2023-03-24T15:16:57.556Z,93.70
2023-03-24T15:19:27.079Z,93.70
2023-03-24T15:22:00.565Z,94.10
2023-03-24T15:24:33.833Z,93.70
2023-03-24T15:27:23.770Z,93.70
2023-03-24T15:29:56.235Z,93.80
2023-03-24T15:32:27.397Z,93.90
2023-03-24T15:34:56.403Z,94.10
2023-03-24T15:37:25.795Z,94.10
2023-03-24T15:40:01.770Z,94.20
2023-03-24T15:42:33.348Z,94.20
2023-03-24T15:45:10.739Z,94.30
2023-03-24T15:47:41.901Z,94.40
2023-03-24T15:50:31.272Z,94.70
2023-03-24T15:53:04.111Z,94.20
2023-03-24T15:55:34.890Z,94.10
2023-03-24T15:58:20.547Z,93.80
2023-03-24T16:00:48.396Z,93.60
2023-03-24T16:03:17.937Z,93.40
2023-03-24T16:05:51.450Z,93.10
2023-03-24T16:08:27.346Z,92.90
2023-03-24T16:10:59.166Z,92.80
2023-03-24T16:13:26.609Z,92.60
2023-03-24T16:15:57.498Z,92.50
2023-03-24T16:18:31.965Z,92.60
2023-03-24T16:20:59.150Z,92.80
2023-03-24T16:23:26.822Z,93.00
2023-03-24T16:25:54.995Z,93.10
2023-03-24T16:28:23.529Z,93.20
2023-03-24T16:30:57.936Z,93.30
2023-03-24T16:33:27.280Z,93.60
2023-03-24T16:35:54.221Z,93.50
2023-03-24T16:38:21.753Z,93.60
2023-03-24T16:40:51.431Z,93.70
2023-03-24T16:43:19.690Z,93.80
2023-03-24T16:45:47.170Z,93.70
2023-03-24T16:48:14.732Z,93.70
2023-03-24T16:50:45.384Z,93.60
2023-03-24T16:53:12.637Z,93.50
2023-03-24T16:55:47.539Z,93.40
2023-03-24T16:58:16.785Z,93.30
2023-03-24T17:00:45.533Z,93.20
2023-03-24T17:03:13.932Z,93.20
2023-03-24T17:05:46.701Z,93.20
2023-03-24T17:08:13.731Z,93.20
2023-03-24T17:10:43.704Z,93.10
2023-03-24T17:13:16.775Z,93.10
2023-03-24T17:15:43.691Z,92.90
2023-03-24T17:18:11.089Z,92.70
2023-03-24T17:20:39.952Z,92.50
2023-03-24T17:23:11.365Z,92.20
2023-03-24T17:25:38.666Z,92.00
2023-03-24T17:28:07.099Z,91.90
2023-03-24T17:30:34.166Z,91.90
2023-03-24T17:33:01.339Z,91.90
2023-03-24T17:35:28.459Z,92.00
2023-03-24T17:37:55.390Z,92.20
2023-03-24T17:40:23.798Z,92.30
2023-03-24T17:42:51.128Z,92.50
2023-03-24T17:45:19.297Z,92.70
2023-03-24T17:47:46.763Z,92.90
2023-03-24T17:50:14.613Z,93.00
2023-03-24T17:52:45.270Z,93.10
2023-03-24T17:55:13.965Z,93.50
2023-03-24T17:57:42.434Z,93.30
2023-03-24T18:00:11.872Z,93.30
2023-03-24T18:02:39.100Z,93.40
2023-03-24T18:05:07.687Z,93.50
2023-03-24T18:07:35.242Z,93.60
2023-03-24T18:10:02.689Z,94.00
2023-03-24T18:12:29.756Z,93.70
2023-03-24T18:14:57.915Z,93.80
2023-03-24T18:17:24.820Z,94.00
2023-03-24T18:19:51.983Z,94.00
2023-03-24T18:22:18.895Z,94.20
2023-03-24T18:24:46.130Z,94.30
2023-03-24T18:27:13.104Z,94.40
2023-03-24T18:29:41.218Z,94.50
2023-03-24T18:32:09.866Z,94.70
2023-03-24T18:34:38.812Z,94.80
2023-03-24T18:37:05.766Z,94.80
2023-03-24T18:39:32.842Z,94.90
2023-03-24T18:41:59.712Z,95.00
2023-03-24T18:44:26.852Z,95.10
2023-03-24T18:46:55.407Z,95.20
2023-03-24T18:49:23.821Z,95.30
2023-03-24T18:51:51.527Z,95.30
2023-03-24T18:54:18.577Z,95.40
2023-03-24T18:56:45.781Z,95.50
2023-03-24T18:59:12.765Z,95.50
2023-03-24T19:01:39.905Z,95.50
2023-03-24T19:04:08.097Z,95.60
2023-03-24T19:06:37.193Z,95.60
2023-03-24T19:09:05.360Z,95.70
2023-03-24T19:11:32.252Z,95.80
2023-03-24T19:13:59.909Z,95.80
2023-03-24T19:16:27.079Z,95.90
2023-03-24T19:18:54.153Z,95.90
2023-03-24T19:21:23.092Z,96.00
2023-03-24T19:23:52.903Z,96.10
2023-03-24T19:26:20.662Z,96.10
2023-03-24T19:28:47.688Z,96.20
2023-03-24T19:31:17.703Z,96.50
2023-03-24T19:33:45.808Z,96.80
2023-03-24T19:36:13.184Z,97.10
2023-03-24T19:38:40.255Z,97.30
2023-03-24T19:41:10.400Z,97.60
2023-03-24T19:43:37.647Z,97.80
2023-03-24T19:46:06.043Z,97.90
2023-03-24T19:48:33.665Z,98.10
2023-03-24T19:51:00.765Z,98.30
2023-03-24T19:53:27.894Z,98.40
2023-03-24T19:55:57.197Z,98.50
2023-03-24T19:58:25.814Z,98.60
2023-03-24T20:00:53.019Z,98.70
2023-03-24T20:03:20.497Z,98.80
2023-03-24T20:05:47.904Z,98.90
2023-03-24T20:08:15.358Z,99.00
2023-03-24T20:10:42.235Z,99.00
2023-03-24T20:13:09.976Z,99.10
2023-03-24T20:15:38.221Z,99.20
2023-03-24T20:18:06.319Z,99.40
2023-03-24T20:20:33.255Z,99.50
2023-03-24T20:23:00.506Z,99.70
2023-03-24T20:25:27.440Z,99.90
2023-03-24T20:27:54.398Z,99.90
2023-03-24T20:30:21.459Z,99.90
2023-03-24T20:32:49.766Z,99.90
2023-03-24T20:35:16.787Z,99.90
2023-03-24T20:37:43.695Z,99.90
2023-03-24T20:40:11.142Z,99.90
2023-03-24T20:42:38.430Z,99.90
2023-03-24T20:45:06.593Z,99.90
2023-03-24T20:47:33.663Z,99.90
2023-03-24T20:50:02.487Z,99.90
2023-03-24T20:52:29.774Z,99.90
2023-03-24T20:54:56.674Z,99.90
2023-03-24T20:57:25.677Z,99.90
2023-03-24T20:59:53.087Z,99.90
2023-03-24T21:02:20.354Z,99.90
2023-03-24T21:04:47.303Z,99.90
2023-03-24T21:07:15.960Z,99.90
2023-03-24T21:09:42.936Z,99.90
2023-03-24T21:12:09.860Z,99.90
2023-03-24T21:14:37.084Z,99.90
2023-03-24T21:17:04.410Z,99.90
2023-03-24T21:19:32.012Z,99.90
2023-03-24T21:21:59.345Z,99.90
2023-03-24T21:24:27.594Z,99.90
2023-03-24T21:26:57.063Z,99.90
2023-03-24T21:29:24.104Z,99.90
2023-03-24T21:31:51.484Z,99.90
2023-03-24T21:34:18.908Z,99.90
2023-03-24T21:36:46.071Z,99.90
2023-03-24T21:39:13.072Z,99.90
2023-03-24T21:41:42.642Z,99.90
2023-03-24T21:44:11.222Z,99.90
2023-03-24T21:46:38.135Z,99.90
2023-03-24T21:49:05.338Z,99.90
2023-03-24T21:51:42.754Z,99.90
2023-03-24T21:54:10.041Z,99.90
2023-03-24T21:56:38.086Z,99.90
2023-03-24T21:59:06.592Z,99.90
2023-03-24T22:01:35.836Z,99.90
2023-03-24T22:04:03.396Z,99.90
2023-03-24T22:06:30.446Z,99.90
2023-03-24T22:09:06.431Z,99.90
2023-03-24T22:11:33.479Z,99.90
2023-03-24T22:14:00.865Z,99.90
2023-03-24T22:16:29.319Z,99.90
2023-03-24T22:18:57.217Z,99.90
2023-03-24T22:21:24.207Z,99.90
2023-03-24T22:23:51.373Z,99.90
2023-03-24T22:26:18.939Z,99.90
2023-03-24T22:28:45.809Z,99.90
2023-03-24T22:31:14.203Z,99.90
2023-03-24T22:33:43.466Z,99.90
2023-03-24T22:36:11.401Z,99.90
2023-03-24T22:38:38.612Z,99.90
2023-03-24T22:41:07.031Z,99.90
2023-03-24T22:43:35.332Z,99.90
2023-03-24T22:46:02.882Z,99.90
2023-03-24T22:48:29.864Z,99.90
2023-03-24T22:50:58.180Z,99.90
2023-03-24T22:53:25.309Z,99.90
2023-03-24T22:55:52.740Z,99.90
2023-03-24T22:58:19.912Z,99.90
2023-03-24T23:00:48.641Z,99.90
2023-03-24T23:03:15.575Z,99.90
2023-03-24T23:05:43.576Z,99.90
2023-03-24T23:08:14.236Z,99.90
2023-03-24T23:10:43.092Z,99.90
2023-03-24T23:13:10.577Z,99.90
2023-03-24T23:15:38.364Z,99.90
2023-03-24T23:18:05.714Z,99.90
2023-03-24T23:20:32.989Z,99.90
2023-03-24T23:23:00.521Z,99.90
2023-03-24T23:25:31.158Z,99.90
2023-03-24T23:27:58.778Z,99.90
2023-03-24T23:30:25.943Z,99.90
2023-03-24T23:32:53.254Z,99.90
2023-03-24T23:35:20.362Z,99.90
2023-03-24T23:37:47.304Z,99.90
2023-03-24T23:40:15.868Z,99.90
2023-03-24T23:42:46.331Z,99.90
2023-03-24T23:45:15.077Z,99.90
2023-03-24T23:47:42.602Z,99.90
2023-03-24T23:50:10.533Z,99.90
2023-03-24T23:52:37.641Z,99.90
2023-03-24T23:55:05.513Z,99.90
2023-03-24T23:57:32.921Z,99.90
